Terminal Aerodrome Forecast
Issued by NWS

Home | Current Version | Previous Version | Text Only | Print | Product List | Glossary On
Versions: 1 2 3 4 5 6 7 8 9 10 11 12 13 14 15 16 17 18 19 20 21 22 23
000
FTUS43 KDLH 191100
TAFHIB
TAF
KHIB 191138Z 1912/2012 14018G24KT P6SM -SHRA OVC060
      TEMPO 1912/1916 2SM -RASN OVC025
     FM191800 18016G24KT P6SM VCSH OVC050
     FM192000 19012KT P6SM SCT060
     FM200100 17007KT P6SM SCT250=

USA.gov is the U.S. government's official web portal to all federal, state and local government web resources and services.